sensor_id;sensor_type;location;lat;lon;timestamp;temperature;humidity
1063;DHT22;520;50.932;6.962;2023-04-24T00:05:10;14.20;94.50
1063;DHT22;520;50.932;6.962;2023-04-24T00:07:46;14.10;94.50
1063;DHT22;520;50.932;6.962;2023-04-24T00:10:27;14.10;94.60
1063;DHT22;520;50.932;6.962;2023-04-24T00:13:09;14.10;94.70
1063;DHT22;520;50.932;6.962;2023-04-24T00:15:52;14.10;94.70
1063;DHT22;520;50.932;6.962;2023-04-24T00:21:33;14.10;95.00
1063;DHT22;520;50.932;6.962;2023-04-24T00:24:18;13.90;95.10
1063;DHT22;520;50.932;6.962;2023-04-24T00:27:06;13.80;95.50
1063;DHT22;520;50.932;6.962;2023-04-24T00:29:33;14.00;95.70
1063;DHT22;520;50.932;6.962;2023-04-24T00:32:05;14.10;95.30
1063;DHT22;520;50.932;6.962;2023-04-24T00:34:48;14.10;95.40
1063;DHT22;520;50.932;6.962;2023-04-24T00:37:15;14.00;95.20
1063;DHT22;520;50.932;6.962;2023-04-24T00:39:47;13.90;95.50
1063;DHT22;520;50.932;6.962;2023-04-24T00:42:36;13.80;95.80
1063;DHT22;520;50.932;6.962;2023-04-24T00:45:16;13.80;96.00
1063;DHT22;520;50.932;6.962;2023-04-24T00:47:58;13.80;96.10
1063;DHT22;520;50.932;6.962;2023-04-24T00:50:44;13.80;96.00
1063;DHT22;520;50.932;6.962;2023-04-24T00:53:25;13.90;95.80
1063;DHT22;520;50.932;6.962;2023-04-24T00:56:02;13.80;95.30
1063;DHT22;520;50.932;6.962;2023-04-24T00:58:44;13.80;95.00
1063;DHT22;520;50.932;6.962;2023-04-24T01:01:26;13.70;94.50
1063;DHT22;520;50.932;6.962;2023-04-24T01:04:11;13.80;94.30
1063;DHT22;520;50.932;6.962;2023-04-24T01:06:50;13.90;93.80
1063;DHT22;520;50.932;6.962;2023-04-24T01:09:39;13.80;93.80
1063;DHT22;520;50.932;6.962;2023-04-24T01:15:04;13.70;93.80
1063;DHT22;520;50.932;6.962;2023-04-24T01:17:39;13.70;93.40
1063;DHT22;520;50.932;6.962;2023-04-24T01:20:15;13.60;93.40
1063;DHT22;520;50.932;6.962;2023-04-24T01:22:57;13.60;93.30
1063;DHT22;520;50.932;6.962;2023-04-24T01:25:45;13.60;93.00
1063;DHT22;520;50.932;6.962;2023-04-24T01:28:30;13.60;92.60
1063;DHT22;520;50.932;6.962;2023-04-24T01:31:15;13.70;92.40
1063;DHT22;520;50.932;6.962;2023-04-24T01:33:56;13.60;92.00
1063;DHT22;520;50.932;6.962;2023-04-24T01:36:33;13.60;91.80
1063;DHT22;520;50.932;6.962;2023-04-24T01:39:17;13.70;91.60
1063;DHT22;520;50.932;6.962;2023-04-24T01:42:10;13.50;91.70
1063;DHT22;520;50.932;6.962;2023-04-24T01:44:47;13.50;91.90
1063;DHT22;520;50.932;6.962;2023-04-24T01:47:26;13.50;91.90
1063;DHT22;520;50.932;6.962;2023-04-24T01:53:21;13.30;91.50
1063;DHT22;520;50.932;6.962;2023-04-24T01:55:48;13.20;91.50
1063;DHT22;520;50.932;6.962;2023-04-24T01:58:15;13.10;91.40
1063;DHT22;520;50.932;6.962;2023-04-24T02:00:42;13.00;91.50
1063;DHT22;520;50.932;6.962;2023-04-24T02:03:09;13.00;91.90
1063;DHT22;520;50.932;6.962;2023-04-24T02:05:38;12.90;91.70
1063;DHT22;520;50.932;6.962;2023-04-24T02:08:05;12.90;91.70
1063;DHT22;520;50.932;6.962;2023-04-24T02:10:32;12.80;91.90
1063;DHT22;520;50.932;6.962;2023-04-24T02:12:59;12.80;91.90
1063;DHT22;520;50.932;6.962;2023-04-24T02:15:27;12.80;92.00
1063;DHT22;520;50.932;6.962;2023-04-24T02:17:54;12.70;92.00
1063;DHT22;520;50.932;6.962;2023-04-24T02:20:21;12.60;92.30
1063;DHT22;520;50.932;6.962;2023-04-24T02:22:48;12.50;92.30
1063;DHT22;520;50.932;6.962;2023-04-24T02:25:15;12.50;92.50
1063;DHT22;520;50.932;6.962;2023-04-24T02:27:42;12.40;92.70
1063;DHT22;520;50.932;6.962;2023-04-24T02:30:09;12.40;92.90
1063;DHT22;520;50.932;6.962;2023-04-24T02:32:36;12.40;93.00
1063;DHT22;520;50.932;6.962;2023-04-24T02:35:04;12.30;93.20
1063;DHT22;520;50.932;6.962;2023-04-24T02:37:31;12.40;93.30
1063;DHT22;520;50.932;6.962;2023-04-24T02:39:58;12.50;93.00
1063;DHT22;520;50.932;6.962;2023-04-24T02:42:25;12.70;92.60
1063;DHT22;520;50.932;6.962;2023-04-24T02:44:52;12.40;92.70
1063;DHT22;520;50.932;6.962;2023-04-24T02:47:18;12.40;92.90
1063;DHT22;520;50.932;6.962;2023-04-24T02:49:45;12.30;93.00
1063;DHT22;520;50.932;6.962;2023-04-24T02:52:12;12.10;93.40
1063;DHT22;520;50.932;6.962;2023-04-24T02:54:39;12.10;93.70
1063;DHT22;520;50.932;6.962;2023-04-24T02:57:06;12.20;93.70
1063;DHT22;520;50.932;6.962;2023-04-24T02:59:33;12.30;93.30
1063;DHT22;520;50.932;6.962;2023-04-24T03:02:00;12.20;93.40
1063;DHT22;520;50.932;6.962;2023-04-24T03:04:27;12.10;93.60
1063;DHT22;520;50.932;6.962;2023-04-24T03:06:55;12.10;93.70
1063;DHT22;520;50.932;6.962;2023-04-24T03:09:22;12.50;93.30
1063;DHT22;520;50.932;6.962;2023-04-24T03:11:49;12.30;93.10
1063;DHT22;520;50.932;6.962;2023-04-24T03:14:16;12.50;93.10
1063;DHT22;520;50.932;6.962;2023-04-24T03:16:43;12.30;92.90
1063;DHT22;520;50.932;6.962;2023-04-24T03:19:10;12.20;93.30
1063;DHT22;520;50.932;6.962;2023-04-24T03:21:37;12.40;93.00
1063;DHT22;520;50.932;6.962;2023-04-24T03:24:07;12.20;93.00
1063;DHT22;520;50.932;6.962;2023-04-24T03:26:35;12.20;93.20
1063;DHT22;520;50.932;6.962;2023-04-24T03:29:02;12.20;93.40
1063;DHT22;520;50.932;6.962;2023-04-24T03:31:29;12.20;93.60
1063;DHT22;520;50.932;6.962;2023-04-24T03:33:56;12.40;93.20
1063;DHT22;520;50.932;6.962;2023-04-24T03:36:23;12.40;92.80
1063;DHT22;520;50.932;6.962;2023-04-24T03:38:49;12.30;92.80
1063;DHT22;520;50.932;6.962;2023-04-24T03:41:16;12.20;93.00
1063;DHT22;520;50.932;6.962;2023-04-24T03:43:43;12.30;92.90
1063;DHT22;520;50.932;6.962;2023-04-24T03:46:10;12.10;92.60
1063;DHT22;520;50.932;6.962;2023-04-24T03:48:37;12.30;92.70
1063;DHT22;520;50.932;6.962;2023-04-24T03:51:04;12.10;92.50
1063;DHT22;520;50.932;6.962;2023-04-24T03:53:31;11.90;92.90
1063;DHT22;520;50.932;6.962;2023-04-24T03:55:58;12.00;93.10
1063;DHT22;520;50.932;6.962;2023-04-24T03:58:25;12.10;92.80
1063;DHT22;520;50.932;6.962;2023-04-24T04:00:52;12.10;92.80
1063;DHT22;520;50.932;6.962;2023-04-24T04:03:18;12.30;92.70
1063;DHT22;520;50.932;6.962;2023-04-24T04:05:46;12.30;92.60
1063;DHT22;520;50.932;6.962;2023-04-24T04:10:53;12.40;91.90
1063;DHT22;520;50.932;6.962;2023-04-24T04:13:33;12.40;91.90
1063;DHT22;520;50.932;6.962;2023-04-24T04:16:08;12.30;92.20
1063;DHT22;520;50.932;6.962;2023-04-24T04:18:52;12.10;92.50
1063;DHT22;520;50.932;6.962;2023-04-24T04:21:42;12.10;92.50
1063;DHT22;520;50.932;6.962;2023-04-24T04:24:22;12.00;92.70
1063;DHT22;520;50.932;6.962;2023-04-24T04:27:18;12.00;92.90
1063;DHT22;520;50.932;6.962;2023-04-24T04:29:49;12.20;92.60
1063;DHT22;520;50.932;6.962;2023-04-24T04:32:24;12.10;92.60
1063;DHT22;520;50.932;6.962;2023-04-24T04:35:10;12.00;92.70
1063;DHT22;520;50.932;6.962;2023-04-24T04:40:21;12.00;92.90
1063;DHT22;520;50.932;6.962;2023-04-24T04:43:10;12.00;93.20
1063;DHT22;520;50.932;6.962;2023-04-24T04:45:53;12.00;93.20
1063;DHT22;520;50.932;6.962;2023-04-24T04:48:40;11.90;93.30
1063;DHT22;520;50.932;6.962;2023-04-24T04:51:23;11.90;93.30
1063;DHT22;520;50.932;6.962;2023-04-24T04:54:28;11.90;93.30
1063;DHT22;520;50.932;6.962;2023-04-24T04:57:02;11.90;93.30
1063;DHT22;520;50.932;6.962;2023-04-24T05:02:29;12.00;93.50
1063;DHT22;520;50.932;6.962;2023-04-24T05:05:38;12.10;93.30
1063;DHT22;520;50.932;6.962;2023-04-24T05:08:16;12.10;93.20
1063;DHT22;520;50.932;6.962;2023-04-24T05:11:27;12.10;93.30
1063;DHT22;520;50.932;6.962;2023-04-24T05:17:38;12.00;93.80
1063;DHT22;520;50.932;6.962;2023-04-24T05:20:20;12.00;93.60
1063;DHT22;520;50.932;6.962;2023-04-24T05:26:24;12.10;93.60
1063;DHT22;520;50.932;6.962;2023-04-24T05:29:15;12.10;93.70
1063;DHT22;520;50.932;6.962;2023-04-24T05:34:27;12.00;93.80
1063;DHT22;520;50.932;6.962;2023-04-24T05:37:06;12.10;93.90
1063;DHT22;520;50.932;6.962;2023-04-24T05:39:41;12.10;93.90
1063;DHT22;520;50.932;6.962;2023-04-24T05:42:36;12.10;94.00
1063;DHT22;520;50.932;6.962;2023-04-24T05:45:25;12.20;94.00
1063;DHT22;520;50.932;6.962;2023-04-24T05:48:29;12.10;94.00
1063;DHT22;520;50.932;6.962;2023-04-24T05:51:25;12.10;94.40
1063;DHT22;520;50.932;6.962;2023-04-24T05:54:22;12.20;94.30
1063;DHT22;520;50.932;6.962;2023-04-24T05:57:03;12.20;94.40
1063;DHT22;520;50.932;6.962;2023-04-24T06:02:25;11.80;94.90
1063;DHT22;520;50.932;6.962;2023-04-24T06:11:16;12.00;94.80
1063;DHT22;520;50.932;6.962;2023-04-24T06:13:46;12.00;95.00
1063;DHT22;520;50.932;6.962;2023-04-24T06:16:46;12.10;95.10
1063;DHT22;520;50.932;6.962;2023-04-24T06:19:26;12.10;94.90
1063;DHT22;520;50.932;6.962;2023-04-24T06:22:19;12.10;95.10
1063;DHT22;520;50.932;6.962;2023-04-24T06:25:08;12.00;95.30
1063;DHT22;520;50.932;6.962;2023-04-24T06:30:52;11.80;96.30
1063;DHT22;520;50.932;6.962;2023-04-24T06:36:43;11.80;96.30
1063;DHT22;520;50.932;6.962;2023-04-24T06:39:23;11.90;95.60
1063;DHT22;520;50.932;6.962;2023-04-24T06:45:18;11.60;96.90
1063;DHT22;520;50.932;6.962;2023-04-24T06:47:56;11.50;98.00
1063;DHT22;520;50.932;6.962;2023-04-24T06:50:28;11.60;98.20
1063;DHT22;520;50.932;6.962;2023-04-24T06:53:06;11.70;98.00
1063;DHT22;520;50.932;6.962;2023-04-24T06:55:46;11.60;98.30
1063;DHT22;520;50.932;6.962;2023-04-24T06:58:30;11.60;98.50
1063;DHT22;520;50.932;6.962;2023-04-24T07:01:07;11.40;99.10
1063;DHT22;520;50.932;6.962;2023-04-24T07:03:59;11.30;99.70
1063;DHT22;520;50.932;6.962;2023-04-24T07:06:31;11.30;99.90
1063;DHT22;520;50.932;6.962;2023-04-24T07:09:00;11.40;99.90
1063;DHT22;520;50.932;6.962;2023-04-24T07:11:40;11.40;99.90
1063;DHT22;520;50.932;6.962;2023-04-24T07:14:13;11.40;99.90
1063;DHT22;520;50.932;6.962;2023-04-24T07:17:06;11.40;99.90
1063;DHT22;520;50.932;6.962;2023-04-24T07:19:48;11.40;99.90
1063;DHT22;520;50.932;6.962;2023-04-24T07:22:23;11.60;99.90
1063;DHT22;520;50.932;6.962;2023-04-24T07:25:00;11.50;99.90
1063;DHT22;520;50.932;6.962;2023-04-24T07:27:31;11.60;99.90
1063;DHT22;520;50.932;6.962;2023-04-24T07:30:10;11.40;99.90
1063;DHT22;520;50.932;6.962;2023-04-24T07:32:47;11.30;99.90
1063;DHT22;520;50.932;6.962;2023-04-24T07:36:00;11.20;99.90
1063;DHT22;520;50.932;6.962;2023-04-24T07:39:07;11.10;99.90
1063;DHT22;520;50.932;6.962;2023-04-24T07:47:54;10.90;99.90
1063;DHT22;520;50.932;6.962;2023-04-24T07:50:37;10.80;99.90
1063;DHT22;520;50.932;6.962;2023-04-24T07:53:21;10.80;99.90
1063;DHT22;520;50.932;6.962;2023-04-24T07:56:27;10.60;99.90
1063;DHT22;520;50.932;6.962;2023-04-24T07:59:14;10.60;99.90
1063;DHT22;520;50.932;6.962;2023-04-24T08:01:58;10.60;99.90
1063;DHT22;520;50.932;6.962;2023-04-24T08:04:25;10.50;99.90
1063;DHT22;520;50.932;6.962;2023-04-24T08:06:59;10.40;99.90
1063;DHT22;520;50.932;6.962;2023-04-24T08:09:33;10.40;99.90
1063;DHT22;520;50.932;6.962;2023-04-24T08:12:16;10.40;99.90
1063;DHT22;520;50.932;6.962;2023-04-24T08:15:00;10.40;99.90
1063;DHT22;520;50.932;6.962;2023-04-24T08:17:37;10.40;99.90
1063;DHT22;520;50.932;6.962;2023-04-24T08:20:15;10.30;99.90
1063;DHT22;520;50.932;6.962;2023-04-24T08:22:52;10.30;99.90
1063;DHT22;520;50.932;6.962;2023-04-24T08:25:30;10.20;99.90
1063;DHT22;520;50.932;6.962;2023-04-24T08:27:59;10.20;99.90
1063;DHT22;520;50.932;6.962;2023-04-24T08:30:26;10.10;99.90
1063;DHT22;520;50.932;6.962;2023-04-24T08:32:57;10.00;99.90
1063;DHT22;520;50.932;6.962;2023-04-24T08:35:32;9.90;99.90
1063;DHT22;520;50.932;6.962;2023-04-24T08:37:59;9.90;99.90
1063;DHT22;520;50.932;6.962;2023-04-24T08:40:40;9.90;99.90
1063;DHT22;520;50.932;6.962;2023-04-24T08:43:20;9.90;99.90
1063;DHT22;520;50.932;6.962;2023-04-24T08:45:48;9.90;99.90
1063;DHT22;520;50.932;6.962;2023-04-24T08:48:38;9.90;99.90
1063;DHT22;520;50.932;6.962;2023-04-24T08:51:15;9.90;99.90
1063;DHT22;520;50.932;6.962;2023-04-24T08:53:54;9.90;99.90
1063;DHT22;520;50.932;6.962;2023-04-24T08:56:36;9.90;99.90
1063;DHT22;520;50.932;6.962;2023-04-24T08:59:18;9.90;99.90
1063;DHT22;520;50.932;6.962;2023-04-24T09:02:06;9.90;99.90
1063;DHT22;520;50.932;6.962;2023-04-24T09:04:55;9.90;99.90
1063;DHT22;520;50.932;6.962;2023-04-24T09:07:35;9.90;99.90
1063;DHT22;520;50.932;6.962;2023-04-24T09:12:59;9.90;99.90
1063;DHT22;520;50.932;6.962;2023-04-24T09:15:29;9.90;99.90
1063;DHT22;520;50.932;6.962;2023-04-24T09:18:05;9.90;99.90
1063;DHT22;520;50.932;6.962;2023-04-24T09:20:37;9.90;99.90
1063;DHT22;520;50.932;6.962;2023-04-24T09:23:46;9.90;99.90
1063;DHT22;520;50.932;6.962;2023-04-24T09:26:39;10.00;99.90
1063;DHT22;520;50.932;6.962;2023-04-24T09:29:38;10.10;99.90
1063;DHT22;520;50.932;6.962;2023-04-24T09:32:28;10.10;99.90
1063;DHT22;520;50.932;6.962;2023-04-24T09:35:16;10.10;99.90
1063;DHT22;520;50.932;6.962;2023-04-24T09:38:03;10.10;99.90
1063;DHT22;520;50.932;6.962;2023-04-24T09:40:38;10.20;99.90
1063;DHT22;520;50.932;6.962;2023-04-24T09:43:20;10.20;99.90
1063;DHT22;520;50.932;6.962;2023-04-24T09:45:56;10.20;99.90
1063;DHT22;520;50.932;6.962;2023-04-24T09:48:35;10.30;99.90
1063;DHT22;520;50.932;6.962;2023-04-24T09:51:35;10.30;99.90
1063;DHT22;520;50.932;6.962;2023-04-24T09:54:22;10.40;99.90
1063;DHT22;520;50.932;6.962;2023-04-24T09:56:54;10.40;99.90
1063;DHT22;520;50.932;6.962;2023-04-24T09:59:27;10.50;99.90
1063;DHT22;520;50.932;6.962;2023-04-24T10:02:05;10.60;99.90
1063;DHT22;520;50.932;6.962;2023-04-24T10:05:01;10.60;99.90
1063;DHT22;520;50.932;6.962;2023-04-24T10:07:35;10.80;99.90
1063;DHT22;520;50.932;6.962;2023-04-24T10:10:11;10.80;99.90
1063;DHT22;520;50.932;6.962;2023-04-24T10:12:44;10.80;99.90
1063;DHT22;520;50.932;6.962;2023-04-24T10:15:20;10.90;99.90
1063;DHT22;520;50.932;6.962;2023-04-24T10:18:00;10.90;99.90
1063;DHT22;520;50.932;6.962;2023-04-24T10:20:40;11.00;99.90
1063;DHT22;520;50.932;6.962;2023-04-24T10:23:20;11.10;99.90
1063;DHT22;520;50.932;6.962;2023-04-24T10:25:57;11.20;99.90
1063;DHT22;520;50.932;6.962;2023-04-24T10:28:40;11.30;99.90
1063;DHT22;520;50.932;6.962;2023-04-24T10:31:10;11.30;99.90
1063;DHT22;520;50.932;6.962;2023-04-24T10:33:55;11.30;99.90
1063;DHT22;520;50.932;6.962;2023-04-24T10:36:38;11.30;99.90
1063;DHT22;520;50.932;6.962;2023-04-24T10:39:16;11.30;99.90
1063;DHT22;520;50.932;6.962;2023-04-24T10:42:05;11.30;99.90
1063;DHT22;520;50.932;6.962;2023-04-24T10:44:48;11.40;99.90
1063;DHT22;520;50.932;6.962;2023-04-24T10:47:23;11.40;99.90
1063;DHT22;520;50.932;6.962;2023-04-24T10:50:23;11.40;99.90
1063;DHT22;520;50.932;6.962;2023-04-24T10:52:50;11.40;99.90
1063;DHT22;520;50.932;6.962;2023-04-24T10:55:58;11.40;99.90
1063;DHT22;520;50.932;6.962;2023-04-24T10:59:11;11.50;99.90
1063;DHT22;520;50.932;6.962;2023-04-24T11:02:38;11.60;99.90
1063;DHT22;520;50.932;6.962;2023-04-24T11:05:07;11.80;99.90
1063;DHT22;520;50.932;6.962;2023-04-24T11:12:11;12.00;99.90
1063;DHT22;520;50.932;6.962;2023-04-24T11:15:07;12.10;99.90
1063;DHT22;520;50.932;6.962;2023-04-24T11:18:05;12.00;99.90
1063;DHT22;520;50.932;6.962;2023-04-24T11:20:57;12.00;99.90
1063;DHT22;520;50.932;6.962;2023-04-24T11:23:36;12.00;99.90
1063;DHT22;520;50.932;6.962;2023-04-24T11:26:38;12.10;99.90
1063;DHT22;520;50.932;6.962;2023-04-24T11:29:43;12.10;99.90
1063;DHT22;520;50.932;6.962;2023-04-24T11:35:44;12.20;99.90
1063;DHT22;520;50.932;6.962;2023-04-24T11:38:24;12.30;99.90
1063;DHT22;520;50.932;6.962;2023-04-24T11:41:06;12.60;99.90
1063;DHT22;520;50.932;6.962;2023-04-24T11:44:02;12.50;99.90
1063;DHT22;520;50.932;6.962;2023-04-24T11:46:46;12.50;99.90
1063;DHT22;520;50.932;6.962;2023-04-24T11:49:30;12.40;99.90
1063;DHT22;520;50.932;6.962;2023-04-24T11:52:15;12.50;99.90
1063;DHT22;520;50.932;6.962;2023-04-24T11:55:01;12.60;99.90
1063;DHT22;520;50.932;6.962;2023-04-24T11:57:47;12.80;99.90
1063;DHT22;520;50.932;6.962;2023-04-24T12:00:31;12.90;99.60
1063;DHT22;520;50.932;6.962;2023-04-24T12:03:28;13.00;98.70
1063;DHT22;520;50.932;6.962;2023-04-24T12:06:11;13.00;98.20
1063;DHT22;520;50.932;6.962;2023-04-24T12:09:00;13.10;98.40
1063;DHT22;520;50.932;6.962;2023-04-24T12:11:53;13.20;98.60
1063;DHT22;520;50.932;6.962;2023-04-24T12:14:57;13.40;97.80
1063;DHT22;520;50.932;6.962;2023-04-24T12:17:57;13.40;97.20
1063;DHT22;520;50.932;6.962;2023-04-24T12:23:55;13.40;96.90
1063;DHT22;520;50.932;6.962;2023-04-24T12:26:28;13.30;96.00
1063;DHT22;520;50.932;6.962;2023-04-24T12:29:27;13.30;96.10
1063;DHT22;520;50.932;6.962;2023-04-24T12:32:17;13.20;96.50
1063;DHT22;520;50.932;6.962;2023-04-24T12:35:10;13.10;96.80
1063;DHT22;520;50.932;6.962;2023-04-24T12:37:45;13.00;96.50
1063;DHT22;520;50.932;6.962;2023-04-24T12:40:28;13.00;96.90
1063;DHT22;520;50.932;6.962;2023-04-24T12:43:18;13.00;96.70
1063;DHT22;520;50.932;6.962;2023-04-24T12:45:53;13.20;96.60
1063;DHT22;520;50.932;6.962;2023-04-24T12:48:28;13.30;96.00
1063;DHT22;520;50.932;6.962;2023-04-24T12:51:18;13.40;95.70
1063;DHT22;520;50.932;6.962;2023-04-24T12:54:09;13.50;95.60
1063;DHT22;520;50.932;6.962;2023-04-24T12:56:48;13.60;95.30
1063;DHT22;520;50.932;6.962;2023-04-24T12:59:36;13.50;95.00
1063;DHT22;520;50.932;6.962;2023-04-24T13:02:20;13.50;94.90
1063;DHT22;520;50.932;6.962;2023-04-24T13:05:01;13.40;94.90
1063;DHT22;520;50.932;6.962;2023-04-24T13:07:47;13.30;95.10
1063;DHT22;520;50.932;6.962;2023-04-24T13:10:23;13.40;95.10
1063;DHT22;520;50.932;6.962;2023-04-24T13:13:07;13.50;95.30
1063;DHT22;520;50.932;6.962;2023-04-24T13:15:40;13.50;95.10
1063;DHT22;520;50.932;6.962;2023-04-24T13:18:19;13.60;94.90
1063;DHT22;520;50.932;6.962;2023-04-24T13:21:18;13.60;94.70
1063;DHT22;520;50.932;6.962;2023-04-24T13:24:12;13.50;94.40
1063;DHT22;520;50.932;6.962;2023-04-24T13:27:03;13.50;93.90
1063;DHT22;520;50.932;6.962;2023-04-24T13:29:41;13.40;93.70
1063;DHT22;520;50.932;6.962;2023-04-24T13:36:47;13.30;93.00
1063;DHT22;520;50.932;6.962;2023-04-24T13:45:53;13.70;92.00
1063;DHT22;520;50.932;6.962;2023-04-24T13:48:33;14.00;91.70
1063;DHT22;520;50.932;6.962;2023-04-24T13:51:42;14.00;90.40
1063;DHT22;520;50.932;6.962;2023-04-24T13:54:20;13.90;90.40
1063;DHT22;520;50.932;6.962;2023-04-24T13:57:04;13.90;90.60
1063;DHT22;520;50.932;6.962;2023-04-24T13:59:35;13.90;90.80
1063;DHT22;520;50.932;6.962;2023-04-24T14:02:27;13.90;91.10
1063;DHT22;520;50.932;6.962;2023-04-24T14:05:08;13.90;91.30
1063;DHT22;520;50.932;6.962;2023-04-24T14:08:13;14.00;90.50
1063;DHT22;520;50.932;6.962;2023-04-24T14:11:31;14.10;90.20
1063;DHT22;520;50.932;6.962;2023-04-24T14:14:33;14.10;90.30
1063;DHT22;520;50.932;6.962;2023-04-24T14:21:07;14.30;90.00
1063;DHT22;520;50.932;6.962;2023-04-24T14:24:14;14.10;88.50
1063;DHT22;520;50.932;6.962;2023-04-24T14:27:26;14.10;88.50
1063;DHT22;520;50.932;6.962;2023-04-24T14:33:20;14.10;87.70
1063;DHT22;520;50.932;6.962;2023-04-24T14:36:01;14.10;86.70
1063;DHT22;520;50.932;6.962;2023-04-24T14:38:46;14.20;86.40
1063;DHT22;520;50.932;6.962;2023-04-24T14:41:32;14.40;85.00
1063;DHT22;520;50.932;6.962;2023-04-24T14:44:30;14.40;84.20
1063;DHT22;520;50.932;6.962;2023-04-24T14:47:25;14.50;83.00
1063;DHT22;520;50.932;6.962;2023-04-24T14:53:05;14.40;81.60
1063;DHT22;520;50.932;6.962;2023-04-24T14:56:22;14.20;81.30
1063;DHT22;520;50.932;6.962;2023-04-24T14:59:22;14.30;81.90
1063;DHT22;520;50.932;6.962;2023-04-24T15:02:00;14.30;82.20
1063;DHT22;520;50.932;6.962;2023-04-24T15:04:44;14.50;81.60
1063;DHT22;520;50.932;6.962;2023-04-24T15:07:44;14.70;80.00
1063;DHT22;520;50.932;6.962;2023-04-24T15:10:38;14.70;79.60
1063;DHT22;520;50.932;6.962;2023-04-24T15:13:08;14.60;78.90
1063;DHT22;520;50.932;6.962;2023-04-24T15:15:46;14.50;79.40
1063;DHT22;520;50.932;6.962;2023-04-24T15:18:17;14.40;80.20
1063;DHT22;520;50.932;6.962;2023-04-24T15:20:53;14.50;81.20
1063;DHT22;520;50.932;6.962;2023-04-24T15:23:25;14.40;82.00
1063;DHT22;520;50.932;6.962;2023-04-24T15:25:58;14.50;82.30
1063;DHT22;520;50.932;6.962;2023-04-24T15:29:02;14.50;82.60
1063;DHT22;520;50.932;6.962;2023-04-24T15:31:39;14.50;81.80
1063;DHT22;520;50.932;6.962;2023-04-24T15:34:41;14.40;81.70
1063;DHT22;520;50.932;6.962;2023-04-24T15:37:24;14.50;82.50
1063;DHT22;520;50.932;6.962;2023-04-24T15:40:32;14.40;81.90
1063;DHT22;520;50.932;6.962;2023-04-24T15:43:54;14.60;82.50
1063;DHT22;520;50.932;6.962;2023-04-24T15:46:38;14.70;82.40
1063;DHT22;520;50.932;6.962;2023-04-24T15:49:53;14.70;81.30
1063;DHT22;520;50.932;6.962;2023-04-24T15:52:41;14.70;81.30
1063;DHT22;520;50.932;6.962;2023-04-24T15:55:31;14.60;80.00
1063;DHT22;520;50.932;6.962;2023-04-24T15:58:42;14.40;78.90
1063;DHT22;520;50.932;6.962;2023-04-24T16:01:42;14.30;79.30
1063;DHT22;520;50.932;6.962;2023-04-24T16:05:03;14.40;80.40
1063;DHT22;520;50.932;6.962;2023-04-24T16:16:21;14.30;80.40
1063;DHT22;520;50.932;6.962;2023-04-24T16:21:45;14.10;80.30
1063;DHT22;520;50.932;6.962;2023-04-24T16:30:50;14.00;80.10
1063;DHT22;520;50.932;6.962;2023-04-24T16:33:45;14.00;80.20
1063;DHT22;520;50.932;6.962;2023-04-24T16:42:13;14.10;80.60
1063;DHT22;520;50.932;6.962;2023-04-24T16:48:25;14.00;80.30
1063;DHT22;520;50.932;6.962;2023-04-24T16:51:21;14.10;80.70
1063;DHT22;520;50.932;6.962;2023-04-24T16:54:24;14.20;81.30
1063;DHT22;520;50.932;6.962;2023-04-24T16:57:19;14.10;80.70
1063;DHT22;520;50.932;6.962;2023-04-24T17:00:37;14.10;82.10
1063;DHT22;520;50.932;6.962;2023-04-24T17:03:51;14.10;81.10
1063;DHT22;520;50.932;6.962;2023-04-24T17:06:42;14.20;79.60
1063;DHT22;520;50.932;6.962;2023-04-24T17:09:23;14.00;78.10
1063;DHT22;520;50.932;6.962;2023-04-24T17:15:12;13.90;78.30
1063;DHT22;520;50.932;6.962;2023-04-24T17:18:18;13.90;78.40
1063;DHT22;520;50.932;6.962;2023-04-24T17:21:15;14.00;78.80
1063;DHT22;520;50.932;6.962;2023-04-24T17:27:10;14.20;79.00
1063;DHT22;520;50.932;6.962;2023-04-24T17:29:57;14.10;78.00
1063;DHT22;520;50.932;6.962;2023-04-24T17:32:54;14.00;78.20
1063;DHT22;520;50.932;6.962;2023-04-24T17:36:12;13.90;78.80
1063;DHT22;520;50.932;6.962;2023-04-24T17:39:09;13.80;78.30
1063;DHT22;520;50.932;6.962;2023-04-24T17:42:28;13.70;78.40
1063;DHT22;520;50.932;6.962;2023-04-24T17:48:43;13.70;78.80
1063;DHT22;520;50.932;6.962;2023-04-24T17:51:51;13.80;78.70
1063;DHT22;520;50.932;6.962;2023-04-24T17:58:08;13.80;78.00
1063;DHT22;520;50.932;6.962;2023-04-24T18:01:07;13.70;78.00
1063;DHT22;520;50.932;6.962;2023-04-24T18:04:08;13.70;78.10
1063;DHT22;520;50.932;6.962;2023-04-24T18:07:13;13.60;78.10
1063;DHT22;520;50.932;6.962;2023-04-24T18:10:06;13.70;79.00
1063;DHT22;520;50.932;6.962;2023-04-24T18:13:02;13.60;79.70
1063;DHT22;520;50.932;6.962;2023-04-24T18:15:32;13.60;80.10
1063;DHT22;520;50.932;6.962;2023-04-24T18:18:29;13.70;80.60
1063;DHT22;520;50.932;6.962;2023-04-24T18:21:23;13.60;80.80
1063;DHT22;520;50.932;6.962;2023-04-24T18:24:08;13.60;80.80
1063;DHT22;520;50.932;6.962;2023-04-24T18:26:44;13.60;81.00
1063;DHT22;520;50.932;6.962;2023-04-24T18:29:50;13.50;80.90
1063;DHT22;520;50.932;6.962;2023-04-24T18:32:54;13.40;80.90
1063;DHT22;520;50.932;6.962;2023-04-24T18:45:07;13.20;81.90
1063;DHT22;520;50.932;6.962;2023-04-24T18:47:55;13.10;82.30
1063;DHT22;520;50.932;6.962;2023-04-24T18:50:58;13.10;82.90
1063;DHT22;520;50.932;6.962;2023-04-24T19:03:15;13.10;84.10
1063;DHT22;520;50.932;6.962;2023-04-24T19:06:23;13.00;84.40
1063;DHT22;520;50.932;6.962;2023-04-24T19:09:01;13.10;85.10
1063;DHT22;520;50.932;6.962;2023-04-24T19:11:57;12.90;84.10
1063;DHT22;520;50.932;6.962;2023-04-24T19:14:48;12.80;84.70
1063;DHT22;520;50.932;6.962;2023-04-24T19:18:18;12.80;85.30
1063;DHT22;520;50.932;6.962;2023-04-24T19:20:40;12.70;85.00
1063;DHT22;520;50.932;6.962;2023-04-24T19:27:28;12.60;85.60
1063;DHT22;520;50.932;6.962;2023-04-24T19:30:17;12.60;86.30
1063;DHT22;520;50.932;6.962;2023-04-24T19:37:13;12.50;86.80
1063;DHT22;520;50.932;6.962;2023-04-24T19:39:57;12.50;87.00
1063;DHT22;520;50.932;6.962;2023-04-24T19:45:57;12.50;87.40
1063;DHT22;520;50.932;6.962;2023-04-24T19:48:24;12.50;87.60
1063;DHT22;520;50.932;6.962;2023-04-24T19:54:40;12.50;88.10
1063;DHT22;520;50.932;6.962;2023-04-24T19:57:21;12.40;88.20
1063;DHT22;520;50.932;6.962;2023-04-24T20:00:03;12.40;88.10
1063;DHT22;520;50.932;6.962;2023-04-24T20:02:46;12.40;88.50
1063;DHT22;520;50.932;6.962;2023-04-24T20:05:17;12.40;88.70
1063;DHT22;520;50.932;6.962;2023-04-24T20:08:02;12.40;88.30
1063;DHT22;520;50.932;6.962;2023-04-24T20:10:45;12.40;88.40
1063;DHT22;520;50.932;6.962;2023-04-24T20:14:23;12.30;88.40
1063;DHT22;520;50.932;6.962;2023-04-24T20:19:59;12.30;89.00
1063;DHT22;520;50.932;6.962;2023-04-24T20:23:18;12.30;89.20
1063;DHT22;520;50.932;6.962;2023-04-24T20:26:08;12.20;89.40
1063;DHT22;520;50.932;6.962;2023-04-24T20:29:04;12.30;89.70
1063;DHT22;520;50.932;6.962;2023-04-24T20:31:52;12.20;89.70
1063;DHT22;520;50.932;6.962;2023-04-24T20:34:34;12.20;90.00
1063;DHT22;520;50.932;6.962;2023-04-24T20:42:46;12.10;90.40
1063;DHT22;520;50.932;6.962;2023-04-24T20:45:29;12.20;90.40
1063;DHT22;520;50.932;6.962;2023-04-24T20:49:22;12.10;90.50
1063;DHT22;520;50.932;6.962;2023-04-24T20:52:13;12.10;90.60
1063;DHT22;520;50.932;6.962;2023-04-24T20:55:11;12.00;90.60
1063;DHT22;520;50.932;6.962;2023-04-24T21:03:19;11.90;90.90
1063;DHT22;520;50.932;6.962;2023-04-24T21:05:49;11.90;91.10